createdAt,value
2022-08-31T00:01:09.239Z,99368.91
2022-08-31T00:05:11.137Z,99368.97
2022-08-31T00:09:12.697Z,99369.03
2022-08-31T00:13:14.352Z,99378.59
2022-08-31T00:17:16.617Z,99379.38
2022-08-31T00:21:19.962Z,99389.28
2022-08-31T00:25:21.402Z,99386.63
2022-08-31T00:29:23.070Z,99377.00
2022-08-31T00:33:24.758Z,99379.88
2022-08-31T00:37:26.482Z,99386.16
2022-08-31T00:41:30.441Z,99394.22
2022-08-31T00:45:32.116Z,99386.44
2022-08-31T00:49:38.360Z,99390.00
2022-08-31T00:53:39.934Z,99389.72
2022-08-31T00:57:45.173Z,99400.06
2022-08-31T01:01:47.043Z,99398.28
2022-08-31T01:05:50.593Z,99411.91
2022-08-31T01:09:55.575Z,99416.25
2022-08-31T01:13:58.554Z,99418.03
2022-08-31T01:18:06.668Z,99426.94
2022-08-31T01:22:19.289Z,99419.38
2022-08-31T01:26:25.674Z,99420.78
2022-08-31T01:30:27.109Z,99420.78
2022-08-31T01:34:28.592Z,99416.53
2022-08-31T01:38:31.818Z,99414.88
2022-08-31T01:42:34.221Z,99422.78
2022-08-31T01:46:36.130Z,99421.22
2022-08-31T01:50:37.712Z,99428.41
2022-08-31T01:54:39.358Z,99422.44
2022-08-31T01:58:41.327Z,99429.66
2022-08-31T02:02:43.083Z,99419.97
2022-08-31T02:06:48.616Z,99417.66
2022-08-31T02:10:50.602Z,99416.16
2022-08-31T02:14:52.548Z,99414.31
2022-08-31T02:18:54.093Z,99415.16
2022-08-31T02:22:55.645Z,99416.59
2022-08-31T02:26:57.429Z,99424.03
2022-08-31T02:30:58.934Z,99421.78
2022-08-31T02:35:00.419Z,99421.13
2022-08-31T02:39:02.101Z,99408.81
2022-08-31T02:43:05.767Z,99410.41
2022-08-31T02:47:07.162Z,99411.19
2022-08-31T02:51:10.125Z,99411.97
2022-08-31T02:55:11.678Z,99416.31
2022-08-31T02:59:13.256Z,99420.06
2022-08-31T03:03:15.434Z,99418.56
2022-08-31T03:07:16.876Z,99414.66
2022-08-31T03:11:19.666Z,99408.00
2022-08-31T03:15:23.685Z,99415.88
2022-08-31T03:19:25.373Z,99415.88
2022-08-31T03:23:26.921Z,99418.50
2022-08-31T03:27:31.987Z,99411.50
2022-08-31T03:31:33.709Z,99411.88
2022-08-31T03:35:35.741Z,99416.34
2022-08-31T03:39:38.069Z,99405.81
2022-08-31T03:43:39.661Z,99423.38
2022-08-31T03:47:44.533Z,99425.03
2022-08-31T03:51:46.765Z,99433.91
2022-08-31T03:55:48.361Z,99434.09
2022-08-31T03:59:54.038Z,99440.25
2022-08-31T04:03:55.694Z,99438.88
2022-08-31T04:07:57.441Z,99440.00
2022-08-31T04:11:59.092Z,99441.16
2022-08-31T04:16:00.971Z,99448.16
2022-08-31T04:20:03.480Z,99449.88
2022-08-31T04:24:04.994Z,99445.56
2022-08-31T04:28:09.067Z,99449.13
2022-08-31T04:32:10.969Z,99453.34
2022-08-31T04:36:17.501Z,99455.31
2022-08-31T04:40:19.701Z,99452.88
2022-08-31T04:44:21.810Z,99455.75
2022-08-31T04:48:23.269Z,99463.66
2022-08-31T04:52:24.722Z,99460.97
2022-08-31T04:56:32.450Z,99453.88
2022-08-31T05:00:34.299Z,99456.50
2022-08-31T05:04:35.796Z,99464.53
2022-08-31T05:08:37.693Z,99469.09
2022-08-31T05:12:39.419Z,99475.34
2022-08-31T05:16:42.113Z,99482.31
2022-08-31T05:20:43.746Z,99474.72
2022-08-31T05:24:45.388Z,99482.50
2022-08-31T05:28:47.292Z,99490.16
2022-08-31T05:32:48.982Z,99489.97
2022-08-31T05:36:54.369Z,99488.06
2022-08-31T05:40:58.571Z,99499.13
2022-08-31T05:45:00.133Z,99501.47
2022-08-31T05:49:02.257Z,99498.56
2022-08-31T05:53:03.673Z,99493.91
2022-08-31T05:57:05.370Z,99504.03
2022-08-31T06:01:25.187Z,99508.81
2022-08-31T06:05:29.086Z,99508.31
2022-08-31T06:09:30.863Z,99501.84
2022-08-31T06:13:32.731Z,99504.88
2022-08-31T06:17:35.081Z,99500.94
2022-08-31T06:21:50.494Z,99504.06
2022-08-31T06:25:52.196Z,99507.09
2022-08-31T06:29:53.881Z,99505.81
2022-08-31T06:33:56.611Z,99514.00
2022-08-31T06:37:58.427Z,99515.19
2022-08-31T06:41:59.949Z,99521.59
2022-08-31T06:46:02.365Z,99526.22
2022-08-31T06:50:04.404Z,99540.50
2022-08-31T06:54:28.082Z,99549.78
2022-08-31T06:58:29.565Z,99555.84
2022-08-31T07:02:31.310Z,99561.22
2022-08-31T07:06:36.565Z,99561.22
2022-08-31T07:10:38.249Z,99568.19
2022-08-31T07:14:58.189Z,99558.50
2022-08-31T07:19:08.877Z,99567.81
2022-08-31T07:23:14.508Z,99566.47
2022-08-31T07:27:38.164Z,99569.28
2022-08-31T07:31:47.193Z,99571.22
2022-08-31T07:36:22.330Z,99572.78
2022-08-31T07:40:45.991Z,99567.50
2022-08-31T07:45:01.834Z,99569.09
2022-08-31T07:49:08.011Z,99569.88
2022-08-31T07:53:44.598Z,99568.56
2022-08-31T08:02:38.291Z,99578.44
2022-08-31T08:06:42.574Z,99576.50
2022-08-31T08:10:52.230Z,99567.38
2022-08-31T08:14:59.885Z,99567.84
2022-08-31T08:19:01.797Z,99561.09
2022-08-31T08:23:06.941Z,99577.88
2022-08-31T08:27:13.677Z,99587.63
2022-08-31T08:31:18.492Z,99592.66
2022-08-31T08:35:20.221Z,99593.84
2022-08-31T08:39:21.970Z,99597.69
2022-08-31T08:43:31.122Z,99611.81
2022-08-31T08:47:37.779Z,99602.78
2022-08-31T08:51:40.462Z,99619.88
2022-08-31T08:55:43.296Z,99614.25
2022-08-31T08:59:47.166Z,99618.31
2022-08-31T09:04:17.129Z,99615.81
2022-08-31T09:08:24.967Z,99611.56
2022-08-31T09:12:31.097Z,99619.75
2022-08-31T09:16:40.846Z,99623.78
2022-08-31T09:20:42.342Z,99625.50
2022-08-31T09:24:44.633Z,99632.16
2022-08-31T09:28:48.611Z,99636.41
2022-08-31T09:32:57.781Z,99638.44
2022-08-31T09:37:14.967Z,99639.00
2022-08-31T09:41:40.278Z,99633.19
2022-08-31T09:46:05.142Z,99638.84
2022-08-31T09:50:10.380Z,99633.47
2022-08-31T09:54:35.402Z,99629.03
2022-08-31T09:58:36.942Z,99631.53
2022-08-31T10:02:42.640Z,99636.91
2022-08-31T10:06:47.063Z,99635.13
2022-08-31T10:10:51.395Z,99629.84
2022-08-31T10:15:02.450Z,99635.56
2022-08-31T10:19:12.162Z,99639.75
2022-08-31T10:23:34.712Z,99643.00
2022-08-31T10:27:42.882Z,99642.09
2022-08-31T10:31:50.865Z,99634.78
2022-08-31T10:36:01.103Z,99642.94
2022-08-31T10:40:19.759Z,99628.69
2022-08-31T10:44:36.348Z,99621.56
2022-08-31T10:48:42.569Z,99620.78
2022-08-31T10:53:05.885Z,99612.38
2022-08-31T10:57:31.417Z,99609.06
2022-08-31T11:02:00.783Z,99602.28
2022-08-31T11:06:29.965Z,99598.59
2022-08-31T11:10:51.952Z,99586.41
2022-08-31T11:15:15.806Z,99578.78
2022-08-31T11:19:31.687Z,99572.75
2022-08-31T11:23:44.916Z,99563.31
2022-08-31T11:28:09.169Z,99567.34
2022-08-31T11:32:21.588Z,99561.44
2022-08-31T11:36:49.995Z,99559.22
2022-08-31T11:41:00.485Z,99545.19
2022-08-31T11:45:05.882Z,99540.47
2022-08-31T11:49:10.912Z,99533.56
2022-08-31T11:53:25.261Z,99525.94
2022-08-31T11:57:36.942Z,99510.66
2022-08-31T12:01:45.085Z,99519.03
2022-08-31T12:05:56.379Z,99521.22
2022-08-31T12:10:07.068Z,99515.78
2022-08-31T12:14:40.066Z,99514.06
2022-08-31T12:19:04.766Z,99503.09
2022-08-31T12:23:40.679Z,99514.03
2022-08-31T12:28:04.624Z,99519.88
2022-08-31T12:32:54.320Z,99502.91
2022-08-31T12:36:56.107Z,99509.78
2022-08-31T12:40:58.071Z,99501.81
2022-08-31T12:44:59.698Z,99490.44
2022-08-31T12:49:23.524Z,99485.75
2022-08-31T12:53:49.819Z,99475.59
2022-08-31T12:58:07.563Z,99484.47
2022-08-31T13:02:13.031Z,99473.59
2022-08-31T13:06:23.406Z,99465.66
2022-08-31T13:10:29.601Z,99467.25
2022-08-31T13:14:40.938Z,99462.50
2022-08-31T13:18:42.479Z,99466.16
2022-08-31T13:22:48.388Z,99465.47
2022-08-31T13:27:05.453Z,99468.78
2022-08-31T13:31:11.978Z,99465.75
2022-08-31T13:35:19.950Z,99471.13
2022-08-31T13:39:34.833Z,99473.31
2022-08-31T13:43:37.619Z,99460.72
2022-08-31T13:47:56.871Z,99466.28
2022-08-31T13:52:00.232Z,99461.19
2022-08-31T13:56:40.490Z,99456.31
2022-08-31T14:00:43.433Z,99453.78
2022-08-31T14:05:00.621Z,99450.38
2022-08-31T14:09:16.606Z,99439.78
2022-08-31T14:13:25.257Z,99442.56
2022-08-31T14:17:26.941Z,99440.03
2022-08-31T14:21:34.349Z,99443.69
2022-08-31T14:25:35.751Z,99445.53
2022-08-31T14:29:40.418Z,99440.94
2022-08-31T14:33:43.801Z,99441.16
2022-08-31T14:37:45.669Z,99440.13
2022-08-31T14:41:47.694Z,99438.31
2022-08-31T14:45:50.958Z,99438.97
2022-08-31T14:49:52.446Z,99433.47
2022-08-31T14:53:57.200Z,99444.41
2022-08-31T14:58:08.368Z,99436.25
2022-08-31T15:02:12.741Z,99427.03
2022-08-31T15:06:17.181Z,99436.09
2022-08-31T15:10:21.940Z,99437.38
2022-08-31T15:14:23.845Z,99444.00
2022-08-31T15:18:25.989Z,99441.53
2022-08-31T15:22:27.937Z,99440.34
2022-08-31T15:26:30.133Z,99447.88
2022-08-31T15:30:33.746Z,99439.56
2022-08-31T15:34:35.822Z,99442.66
2022-08-31T15:38:40.033Z,99435.13
2022-08-31T15:42:42.094Z,99435.47
2022-08-31T15:47:02.013Z,99442.72
2022-08-31T15:55:26.528Z,99450.09
2022-08-31T15:59:28.304Z,99451.44
2022-08-31T16:03:34.342Z,99450.81
2022-08-31T16:07:37.297Z,99446.56
2022-08-31T16:11:39.891Z,99441.69
2022-08-31T16:15:48.141Z,99446.41
2022-08-31T16:19:51.035Z,99445.47
2022-08-31T16:24:00.563Z,99441.22
2022-08-31T16:28:02.607Z,99434.38
2022-08-31T16:32:06.564Z,99439.19
2022-08-31T16:36:17.052Z,99441.03
2022-08-31T16:40:18.920Z,99439.47
2022-08-31T16:44:20.607Z,99440.91
2022-08-31T16:48:40.979Z,99436.25
2022-08-31T16:52:44.513Z,99443.03
2022-08-31T16:56:52.046Z,99446.88
2022-08-31T17:00:55.306Z,99450.22
2022-08-31T17:05:00.538Z,99451.00
2022-08-31T17:09:05.119Z,99447.09
2022-08-31T17:13:07.378Z,99439.69
2022-08-31T17:17:10.678Z,99442.25
2022-08-31T17:21:16.014Z,99439.31
2022-08-31T17:25:18.623Z,99448.88
2022-08-31T17:29:22.086Z,99455.84
2022-08-31T17:33:26.292Z,99458.13
2022-08-31T17:37:36.528Z,99451.63
2022-08-31T17:41:40.074Z,99456.81
2022-08-31T17:45:41.751Z,99450.41
2022-08-31T17:49:46.629Z,99457.13
2022-08-31T17:53:48.367Z,99455.84
2022-08-31T17:57:50.029Z,99458.19
2022-08-31T18:01:53.956Z,99472.91
2022-08-31T18:05:55.547Z,99477.13
2022-08-31T18:09:57.322Z,99477.84
2022-08-31T18:13:58.773Z,99474.16
2022-08-31T18:18:00.758Z,99484.63
2022-08-31T18:22:02.697Z,99482.97
2022-08-31T18:26:14.309Z,99484.00
2022-08-31T18:30:15.905Z,99488.63
2022-08-31T18:34:21.314Z,99485.06
2022-08-31T18:38:22.844Z,99498.88
2022-08-31T18:42:42.846Z,99496.50
2022-08-31T18:46:45.534Z,99506.34
2022-08-31T18:50:49.121Z,99508.88
2022-08-31T18:54:52.819Z,99506.09
2022-08-31T18:58:54.279Z,99503.00
2022-08-31T19:02:55.672Z,99508.72
2022-08-31T19:06:58.208Z,99504.81
2022-08-31T19:11:00.267Z,99505.25
2022-08-31T19:15:03.537Z,99504.81
2022-08-31T19:19:05.187Z,99501.22
2022-08-31T19:23:08.120Z,99504.59
2022-08-31T19:27:10.282Z,99512.31
2022-08-31T19:31:11.880Z,99512.25
2022-08-31T19:35:13.584Z,99511.25
2022-08-31T19:39:18.403Z,99508.47
2022-08-31T19:47:41.336Z,99506.34
2022-08-31T19:51:47.284Z,99508.91
2022-08-31T19:55:51.218Z,99508.72
2022-08-31T19:59:52.887Z,99502.38
2022-08-31T20:03:57.154Z,99504.78
2022-08-31T20:07:58.578Z,99504.78
2022-08-31T20:12:01.992Z,99510.06
2022-08-31T20:16:07.686Z,99502.16
2022-08-31T20:20:12.347Z,99501.44
2022-08-31T20:24:14.053Z,99497.94
2022-08-31T20:28:16.051Z,99502.38
2022-08-31T20:32:17.474Z,99497.22
2022-08-31T20:36:27.175Z,99498.28
2022-08-31T20:40:28.779Z,99496.56
2022-08-31T20:44:35.906Z,99490.53
2022-08-31T20:48:55.739Z,99488.13
2022-08-31T20:52:57.293Z,99493.69
2022-08-31T20:57:01.183Z,99492.59
2022-08-31T21:01:07.689Z,99493.97
2022-08-31T21:05:37.124Z,99489.16
2022-08-31T21:09:32.049Z,99486.59
2022-08-31T21:13:33.770Z,99488.22
2022-08-31T21:17:35.316Z,99486.59
2022-08-31T21:21:36.769Z,99487.06
2022-08-31T21:25:43.925Z,99485.41
2022-08-31T21:29:47.058Z,99484.03
2022-08-31T21:33:48.538Z,99487.38
2022-08-31T21:37:50.369Z,99476.53
2022-08-31T21:41:51.912Z,99487.56
2022-08-31T21:46:08.086Z,99476.78
2022-08-31T21:50:09.737Z,99485.38
2022-08-31T21:54:13.946Z,99486.78
2022-08-31T21:58:15.450Z,99482.94
2022-08-31T22:02:16.966Z,99485.16
2022-08-31T22:06:27.070Z,99478.53
2022-08-31T22:10:30.400Z,99483.19
2022-08-31T22:14:36.317Z,99475.69
2022-08-31T22:19:00.816Z,99483.94
2022-08-31T22:23:04.421Z,99490.38
2022-08-31T22:27:11.629Z,99481.00
2022-08-31T22:31:16.112Z,99489.22
2022-08-31T22:35:19.931Z,99488.69
2022-08-31T22:39:28.682Z,99492.44
2022-08-31T22:43:30.260Z,99495.34
2022-08-31T22:47:31.737Z,99491.13
2022-08-31T22:51:35.866Z,99493.09
2022-08-31T22:55:38.320Z,99492.50
2022-08-31T22:59:39.991Z,99491.91
2022-08-31T23:03:42.747Z,99486.81
2022-08-31T23:07:44.240Z,99483.69
2022-08-31T23:11:45.635Z,99490.69
2022-08-31T23:15:50.176Z,99491.75
2022-08-31T23:19:54.321Z,99487.59
2022-08-31T23:23:56.573Z,99487.69
2022-08-31T23:28:00.171Z,99484.25
2022-08-31T23:36:26.248Z,99478.41
2022-08-31T23:40:31.012Z,99473.41
2022-08-31T23:44:33.402Z,99473.59
2022-08-31T23:48:34.893Z,99472.91
2022-08-31T23:52:41.459Z,99473.84
2022-08-31T23:56:45.831Z,99471.25
